Time;durP1;ratioP1;P1;durP2;ratioP2;P2;SDS_P1;SDS_P2;PMS_P1;PMS_P2;Temp;Humidity;BMP_temperature;BMP_pressure;BME280_temperature;BME280_humidity;BME280_pressure;Samples;Min_cycle;Max_cycle;Signal;HPM_P1;HPM_P2
2022/03/03 00:01:01;;;;;;;19.98;13.40;;;;;;;0.26;58.75;99234.81;2623433;54;20058;-67
2022/03/03 00:03:34;;;;;;;18.80;12.80;;;;;;;0.28;58.86;99230.31;2624171;54;20026;-68
2022/03/03 00:06:04;;;;;;;17.85;12.52;;;;;;;0.35;59.24;99234.13;2623966;54;20019;-69
2022/03/03 00:08:34;;;;;;;17.95;11.82;;;;;;;0.42;58.99;99231.88;2624796;54;20042;-67
2022/03/03 00:11:06;;;;;;;15.85;11.18;;;;;;;0.53;58.52;99236.25;2624840;46;20031;-67
2022/03/03 00:13:38;;;;;;;18.10;11.82;;;;;;;0.50;58.56;99224.31;2624929;54;20031;-68
2022/03/03 00:16:08;;;;;;;17.27;11.50;;;;;;;0.57;58.81;99230.72;2624872;54;20111;-67
2022/03/03 00:18:40;;;;;;;19.85;11.20;;;;;;;0.61;58.74;99226.94;2627749;39;20442;-68
2022/03/03 00:21:10;;;;;;;18.83;11.10;;;;;;;0.61;58.36;99234.72;2624151;47;20034;-69
2022/03/03 00:23:40;;;;;;;14.43;10.50;;;;;;;0.63;58.12;99226.78;2624779;54;20078;-68
2022/03/03 00:26:10;;;;;;;17.48;11.60;;;;;;;0.60;58.44;99232.22;2624725;54;20038;-69
2022/03/03 00:28:39;;;;;;;17.33;11.82;;;;;;;0.49;57.94;99233.91;2624435;47;20031;-68
2022/03/03 00:31:09;;;;;;;17.92;11.10;;;;;;;0.30;58.08;99230.22;2624678;54;20037;-68
2022/03/03 00:33:41;;;;;;;15.02;11.40;;;;;;;0.21;58.89;99235.19;2624628;47;20030;-67
2022/03/03 00:36:12;;;;;;;19.42;12.25;;;;;;;0.15;59.07;99234.81;2624722;54;20049;-67
2022/03/03 00:38:41;;;;;;;19.38;13.20;;;;;;;0.03;58.75;99235.72;2624000;54;20142;-67
2022/03/03 00:41:11;;;;;;;22.13;14.25;;;;;;;-0.07;59.39;99235.59;2624468;54;20027;-68
2022/03/03 00:43:40;;;;;;;20.40;13.80;;;;;;;-0.16;59.64;99246.69;2624331;54;20065;-68
2022/03/03 00:46:10;;;;;;;19.15;14.02;;;;;;;-0.17;59.99;99245.84;2623625;47;20038;-66
2022/03/03 00:48:42;;;;;;;20.88;14.23;;;;;;;-0.08;60.14;99247.78;2625108;54;20030;-68
2022/03/03 00:51:12;;;;;;;22.95;14.38;;;;;;;0.05;60.20;99241.66;2625625;54;20037;-67
2022/03/03 00:53:42;;;;;;;22.08;13.35;;;;;;;0.09;59.88;99248.28;2624388;54;20034;-68
2022/03/03 00:56:11;;;;;;;21.60;14.13;;;;;;;0.08;59.83;99244.00;2624513;39;20441;-67
2022/03/03 00:58:41;;;;;;;22.77;13.82;;;;;;;0.13;60.08;99234.09;2624142;54;20038;-67
2022/03/03 01:01:10;;;;;;;20.50;12.73;;;;;;;0.15;60.11;99229.59;2624072;54;20046;-68
2022/03/03 01:03:43;;;;;;;18.42;12.68;;;;;;;0.14;59.92;99228.78;2624142;39;20540;-67
2022/03/03 01:06:13;;;;;;;18.73;12.57;;;;;;;0.16;60.12;99226.06;2623984;54;20031;-66
2022/03/03 01:08:43;;;;;;;23.70;13.30;;;;;;;0.19;59.78;99231.84;2623622;54;20042;-67
2022/03/03 01:11:13;;;;;;;20.70;14.38;;;;;;;0.10;59.84;99232.56;2624223;54;20039;-67
2022/03/03 01:13:43;;;;;;;20.70;13.52;;;;;;;0.02;59.95;99226.28;2624251;54;20026;-68
2022/03/03 01:16:12;;;;;;;18.92;13.30;;;;;;;-0.03;59.76;99222.25;2624178;54;20030;-67
2022/03/03 01:18:45;;;;;;;19.55;13.90;;;;;;;-0.10;59.89;99230.63;2624965;54;20050;-67
2022/03/03 01:21:14;;;;;;;20.33;13.85;;;;;;;-0.24;60.64;99234.25;2624900;54;20034;-68
2022/03/03 01:23:44;;;;;;;18.55;13.63;;;;;;;-0.23;60.57;99237.69;2624986;54;20030;-68
2022/03/03 01:26:14;;;;;;;19.13;13.02;;;;;;;-0.16;60.81;99234.53;2625053;47;20103;-67
2022/03/03 01:28:43;;;;;;;20.30;13.23;;;;;;;-0.16;60.60;99229.31;2625630;54;20027;-68
2022/03/03 01:31:13;;;;;;;18.35;13.20;;;;;;;-0.24;60.70;99223.88;2624990;46;20042;-66
2022/03/03 01:33:45;;;;;;;20.20;13.65;;;;;;;-0.30;60.75;99226.91;2625424;47;20090;-66
2022/03/03 01:36:15;;;;;;;19.23;13.25;;;;;;;-0.34;61.07;99230.66;2625521;54;20022;-66
2022/03/03 01:38:44;;;;;;;18.48;12.95;;;;;;;-0.46;61.02;99221.19;2625682;54;20034;-66
2022/03/03 01:41:14;;;;;;;20.40;12.77;;;;;;;-0.57;61.25;99220.22;2626078;39;20485;-65
2022/03/03 01:43:44;;;;;;;16.75;12.52;;;;;;;-0.64;61.71;99213.78;2627003;39;20485;-66
2022/03/03 01:46:14;;;;;;;20.50;12.27;;;;;;;-0.68;61.71;99222.75;2626083;54;20041;-66
2022/03/03 01:48:46;;;;;;;16.83;12.02;;;;;;;-0.68;61.78;99219.31;2625727;54;20026;-66
2022/03/03 01:51:16;;;;;;;17.92;12.55;;;;;;;-0.65;62.17;99217.34;2625679;54;20030;-66
2022/03/03 01:53:46;;;;;;;19.88;11.90;;;;;;;-0.55;62.20;99215.72;2624479;47;20585;-66
2022/03/03 01:56:16;;;;;;;18.40;12.48;;;;;;;-0.48;61.84;99210.09;2625475;54;20026;-65
2022/03/03 01:58:47;;;;;;;17.10;11.88;;;;;;;-0.46;61.87;99206.41;2625599;54;20038;-66
2022/03/03 02:01:17;;;;;;;20.23;12.13;;;;;;;-0.50;61.91;99200.63;2625963;54;20039;-66
2022/03/03 02:03:50;;;;;;;20.10;12.65;;;;;;;-0.51;61.76;99201.56;2625718;54;20034;-66
2022/03/03 02:06:19;;;;;;;22.40;13.20;;;;;;;-0.56;61.51;99208.03;2627022;39;20419;-66
2022/03/03 02:08:49;;;;;;;20.52;12.90;;;;;;;-0.57;61.82;99203.81;2625331;54;20042;-66
2022/03/03 02:11:19;;;;;;;19.40;12.18;;;;;;;-0.44;62.08;99199.34;2624817;54;20026;-67
2022/03/03 02:13:49;;;;;;;22.13;12.75;;;;;;;-0.35;61.74;99200.44;2626318;54;20038;-66
2022/03/03 02:16:19;;;;;;;20.27;12.80;;;;;;;-0.32;61.75;99195.03;2626344;39;20425;-67
2022/03/03 02:18:51;;;;;;;24.70;14.23;;;;;;;-0.29;61.58;99194.78;2625367;47;20027;-67
2022/03/03 02:21:24;;;;;;;21.92;13.55;;;;;;;-0.32;61.79;99182.03;2624209;39;20418;-69
2022/03/03 02:23:53;;;;;;;25.30;13.05;;;;;;;-0.34;61.54;99178.72;2623307;54;20044;-66
2022/03/03 02:26:24;;;;;;;25.27;13.00;;;;;;;-0.28;61.51;99165.28;2623094;39;20411;-66
2022/03/03 02:28:56;;;;;;;22.90;13.35;;;;;;;-0.23;61.77;99165.75;2622165;54;20039;-67
2022/03/03 02:31:25;;;;;;;20.33;13.38;;;;;;;-0.25;61.33;99167.63;2624755;54;20061;-67
2022/03/03 02:33:55;;;;;;;20.23;13.27;;;;;;;-0.44;61.10;99167.38;2624392;54;20022;-67
2022/03/03 02:36:29;;;;;;;25.02;13.45;;;;;;;-0.60;61.90;99158.09;2624708;54;20046;-66
2022/03/03 02:39:01;;;;;;;18.77;13.38;;;;;;;-0.57;61.85;99165.66;2623168;39;20540;-67
2022/03/03 02:41:31;;;;;;;21.45;14.10;;;;;;;-0.71;61.63;99172.81;2623381;54;20046;-67
2022/03/03 02:44:02;;;;;;;19.75;13.38;;;;;;;-0.86;62.10;99182.53;2623695;54;20149;-66
2022/03/03 02:46:33;;;;;;;22.52;14.07;;;;;;;-0.91;62.57;99172.47;2624615;54;20129;-66
2022/03/03 02:49:02;;;;;;;22.23;14.50;;;;;;;-0.94;62.85;99170.13;2621908;54;20149;-69
2022/03/03 02:51:35;;;;;;;21.48;13.52;;;;;;;-0.87;62.99;99155.75;2620952;54;20042;-66
2022/03/03 02:54:05;;;;;;;23.25;13.70;;;;;;;-0.76;62.89;99157.56;2622768;54;20038;-67
2022/03/03 02:57:53;;;;;;;19.80;13.63;;;;;;;-0.66;63.23;99153.34;2623156;54;20815;-66
2022/03/03 02:59:21;;;;;;;18.60;12.90;;;;;;;-0.57;62.65;99151.88;2623578;54;20030;-66
2022/03/03 03:01:51;;;;;;;21.05;13.65;;;;;;;-0.46;62.57;99146.69;2623741;54;20038;-66
2022/03/03 03:04:21;;;;;;;19.02;12.18;;;;;;;-0.43;62.29;99145.63;2623909;54;20089;-67
2022/03/03 03:06:53;;;;;;;19.83;12.30;;;;;;;-0.40;62.13;99146.22;2624053;54;20027;-67
2022/03/03 03:09:23;;;;;;;21.25;13.07;;;;;;;-0.41;62.27;99143.72;2625364;54;20043;-67
2022/03/03 03:11:53;;;;;;;21.42;13.38;;;;;;;-0.34;62.25;99148.34;2624724;54;20030;-67
2022/03/03 03:14:22;;;;;;;22.08;13.25;;;;;;;-0.26;62.00;99150.38;2623234;54;20514;-67
2022/03/03 03:16:52;;;;;;;20.95;12.93;;;;;;;-0.23;61.77;99150.16;2622140;54;20041;-67
2022/03/03 03:19:22;;;;;;;21.05;13.45;;;;;;;-0.26;61.61;99143.41;2622036;54;20039;-67
2022/03/03 03:21:54;;;;;;;20.05;13.38;;;;;;;-0.23;62.05;99144.13;2621724;54;20042;-67
2022/03/03 03:24:24;;;;;;;18.77;13.18;;;;;;;-0.30;61.79;99142.00;2624919;54;20090;-67
2022/03/03 03:26:53;;;;;;;19.60;12.98;;;;;;;-0.34;61.75;99139.75;2625969;54;20042;-67
2022/03/03 03:29:23;;;;;;;20.17;13.25;;;;;;;-0.33;61.89;99143.97;2625027;54;20033;-68
2022/03/03 03:31:53;;;;;;;21.83;13.73;;;;;;;-0.28;62.06;99150.50;2625683;54;20037;-68
2022/03/03 03:34:23;;;;;;;20.83;14.05;;;;;;;-0.25;62.20;99144.25;2625385;54;20022;-67
2022/03/03 03:37:00;;;;;;;22.05;13.55;;;;;;;-0.25;61.78;99141.63;2625684;54;20054;-67
2022/03/03 03:39:30;;;;;;;18.40;13.15;;;;;;;-0.26;61.94;99135.63;2625022;54;20061;-67
2022/03/03 03:42:00;;;;;;;21.58;13.32;;;;;;;-0.30;61.62;99134.19;2625637;54;20065;-67
2022/03/03 03:44:30;;;;;;;20.40;13.40;;;;;;;-0.27;61.63;99135.75;2625237;54;20541;-67
2022/03/03 03:46:59;;;;;;;19.70;12.90;;;;;;;-0.37;61.77;99130.44;2625862;54;20046;-67
2022/03/03 03:49:29;;;;;;;22.35;15.45;;;;;;;-0.48;61.58;99135.59;2625955;39;20423;-67
2022/03/03 03:52:02;;;;;;;21.05;13.93;;;;;;;-0.52;61.84;99129.78;2625898;39;20399;-67
2022/03/03 03:54:32;;;;;;;21.25;14.60;;;;;;;-0.56;62.35;99135.34;2625091;54;20041;-67
2022/03/03 03:57:02;;;;;;;21.08;14.98;;;;;;;-0.59;62.58;99130.34;2626183;54;20034;-67
2022/03/03 03:59:31;;;;;;;22.20;14.65;;;;;;;-0.61;63.15;99112.31;2626022;54;20026;-67
2022/03/03 04:02:01;;;;;;;31.23;16.13;;;;;;;-0.83;63.00;99123.44;2624829;47;20039;-67
2022/03/03 04:04:31;;;;;;;25.05;14.95;;;;;;;-1.03;63.57;99124.88;2625533;54;20033;-67
2022/03/03 04:07:04;;;;;;;19.80;14.23;;;;;;;-1.02;64.03;99123.13;2625198;54;20034;-67
2022/03/03 04:09:34;;;;;;;20.27;14.45;;;;;;;-0.96;63.68;99121.84;2621665;54;20049;-68
2022/03/03 04:12:04;;;;;;;23.33;14.45;;;;;;;-0.86;63.88;99118.50;2623059;54;20039;-67
2022/03/03 04:14:34;;;;;;;30.52;15.80;;;;;;;-0.74;63.55;99119.31;2624544;39;20387;-67
2022/03/03 04:17:05;;;;;;;25.23;15.30;;;;;;;-0.81;63.47;99113.78;2623041;54;20240;-67
2022/03/03 04:19:34;;;;;;;21.85;14.38;;;;;;;-0.79;63.76;99117.06;2623588;54;20027;-67
2022/03/03 04:22:07;;;;;;;24.45;14.95;;;;;;;-0.83;63.38;99112.22;2623545;54;20030;-67
2022/03/03 04:24:37;;;;;;;23.95;14.50;;;;;;;-0.92;63.56;99120.69;2623245;54;20026;-67
2022/03/03 04:27:07;;;;;;;23.05;15.15;;;;;;;-1.10;63.37;99117.69;2623989;54;20031;-67
2022/03/03 04:29:36;;;;;;;22.23;14.00;;;;;;;-1.24;63.63;99121.25;2624673;46;20010;-67
2022/03/03 04:32:07;;;;;;;25.75;15.85;;;;;;;-1.33;64.04;99112.38;2626293;54;20038;-67
2022/03/03 04:34:37;;;;;;;23.63;15.20;;;;;;;-1.31;64.57;99112.25;2625001;54;20022;-68
2022/03/03 04:37:09;;;;;;;23.27;14.98;;;;;;;-1.23;64.44;99111.69;2625351;54;20050;-68
2022/03/03 04:39:38;;;;;;;21.60;14.43;;;;;;;-1.23;64.50;99101.31;2625086;54;20062;-68
2022/03/03 04:42:09;;;;;;;21.50;14.50;;;;;;;-1.26;64.03;99116.19;2624343;54;20041;-68
2022/03/03 04:44:38;;;;;;;20.65;14.50;;;;;;;-1.30;64.33;99112.16;2624890;46;20054;-67
2022/03/03 04:47:08;;;;;;;22.05;14.45;;;;;;;-1.34;64.17;99102.94;2623569;47;20089;-67
2022/03/03 04:49:38;;;;;;;23.20;15.30;;;;;;;-1.39;64.55;99104.19;2625055;39;20698;-70
2022/03/03 04:52:11;;;;;;;21.00;14.02;;;;;;;-1.47;64.69;99107.34;2623970;54;20026;-67
2022/03/03 04:54:40;;;;;;;24.15;14.73;;;;;;;-1.58;65.13;99102.09;2623903;47;20058;-66
2022/03/03 04:57:10;;;;;;;22.80;15.07;;;;;;;-1.44;65.33;99104.50;2625127;47;20049;-66
2022/03/03 04:59:40;;;;;;;21.95;14.77;;;;;;;-1.45;64.91;99099.44;2626999;39;20461;-66
2022/03/03 05:02:10;;;;;;;22.75;14.98;;;;;;;-1.43;65.02;99103.59;2625131;54;20042;-67
2022/03/03 05:04:39;;;;;;;20.75;14.07;;;;;;;-1.29;65.11;99100.84;2625370;54;20030;-66
2022/03/03 05:07:12;;;;;;;24.50;14.63;;;;;;;-1.21;64.69;99102.06;2626082;54;20030;-67
2022/03/03 05:09:41;;;;;;;21.20;14.90;;;;;;;-1.17;64.63;99103.50;2624480;47;20545;-67
2022/03/03 05:12:11;;;;;;;20.50;14.10;;;;;;;-1.15;64.96;99104.19;2624610;54;20042;-68
2022/03/03 05:14:41;;;;;;;21.20;14.98;;;;;;;-1.14;64.72;99108.47;2624193;47;20050;-68
2022/03/03 05:17:11;;;;;;;24.63;14.73;;;;;;;-1.05;64.49;99110.38;2622405;54;20026;-69
2022/03/03 05:19:40;;;;;;;29.33;16.05;;;;;;;-1.13;64.36;99107.50;2619984;54;20026;-69
2022/03/03 05:22:13;;;;;;;26.50;16.63;;;;;;;-1.34;64.48;99102.94;2626468;54;20025;-69
2022/03/03 05:24:43;;;;;;;27.35;16.65;;;;;;;-1.34;64.64;99096.94;2617199;54;20557;-69
2022/03/03 05:27:12;;;;;;;23.67;16.27;;;;;;;-1.30;64.72;99091.41;2617588;47;20038;-69
2022/03/03 05:29:42;;;;;;;25.52;15.45;;;;;;;-1.31;65.30;99091.50;2618167;54;20033;-70
2022/03/03 05:32:11;;;;;;;20.67;14.77;;;;;;;-1.31;65.04;99084.56;2617657;47;20038;-70
2022/03/03 05:34:41;;;;;;;21.88;14.68;;;;;;;-1.25;64.96;99085.88;2617424;46;20027;-70
2022/03/03 05:37:15;;;;;;;24.52;14.43;;;;;;;-1.27;64.47;99087.75;2618538;39;20418;-70
2022/03/03 05:39:45;;;;;;;25.90;16.48;;;;;;;-1.70;64.77;99090.00;2618283;46;20057;-69
2022/03/03 05:42:15;;;;;;;33.03;16.73;;;;;;;-2.03;65.94;99099.19;2618160;54;20034;-70
2022/03/03 05:44:45;;;;;;;32.45;18.15;;;;;;;-2.16;66.23;99098.38;2617092;47;20150;-69
2022/03/03 05:47:15;;;;;;;30.95;16.35;;;;;;;-2.18;66.45;99100.22;2623545;54;20027;-69
2022/03/03 05:49:47;;;;;;;29.48;16.17;;;;;;;-2.02;66.38;99101.66;2623685;54;20019;-70
2022/03/03 05:52:20;;;;;;;31.05;16.00;;;;;;;-1.88;65.95;99102.44;2622933;54;20030;-69
2022/03/03 05:54:50;;;;;;;29.23;15.70;;;;;;;-1.84;65.90;99098.72;2618855;47;20022;-69
2022/03/03 05:57:23;;;;;;;23.85;14.00;;;;;;;-1.80;66.23;99106.19;2618263;54;20031;-69
2022/03/03 05:59:54;;;;;;;25.70;16.33;;;;;;;-1.75;66.15;99098.91;2617977;54;20034;-69
2022/03/03 06:02:23;;;;;;;23.80;16.15;;;;;;;-1.68;66.05;99104.47;2618114;54;20034;-69
2022/03/03 06:04:53;;;;;;;21.67;14.00;;;;;;;-1.70;65.72;99098.59;2617875;54;20014;-69
2022/03/03 06:07:31;;;;;;;21.52;13.30;;;;;;;-1.63;65.78;99096.41;2617713;47;20041;-69
2022/03/03 06:10:05;;;;;;;17.85;12.25;;;;;;;-1.58;65.55;99100.31;2618681;39;20428;-70
2022/03/03 06:12:43;;;;;;;21.02;14.65;;;;;;;-1.59;65.51;99100.44;2618039;54;20038;-69
2022/03/03 06:15:15;;;;;;;22.15;14.32;;;;;;;-1.67;65.52;99097.56;2617928;54;20042;-69
2022/03/03 06:17:46;;;;;;;24.83;13.27;;;;;;;-1.77;65.37;99112.91;2618012;54;20053;-69
2022/03/03 06:20:16;;;;;;;22.17;14.00;;;;;;;-1.79;65.96;99100.06;2618701;39;20527;-69
2022/03/03 06:22:48;;;;;;;24.75;13.52;;;;;;;-1.66;66.22;99087.06;2617731;47;20038;-69
2022/03/03 06:25:18;;;;;;;23.13;12.85;;;;;;;-1.54;65.73;99082.78;2618603;39;20656;-69
2022/03/03 06:27:48;;;;;;;19.25;12.68;;;;;;;-1.53;65.58;99082.66;2619160;54;20038;-68
2022/03/03 06:30:17;;;;;;;25.40;13.10;;;;;;;-1.46;65.93;99080.47;2623040;48;20042;-69
2022/03/03 06:32:47;;;;;;;21.05;12.38;;;;;;;-1.35;65.46;99084.88;2625441;54;20037;-69
2022/03/03 06:35:17;;;;;;;21.40;14.18;;;;;;;-1.37;64.68;99069.44;2625925;47;20014;-69
2022/03/03 06:37:49;;;;;;;21.63;13.32;;;;;;;-1.49;64.77;99065.13;2626147;54;20042;-69
2022/03/03 06:40:19;;;;;;;24.00;14.38;;;;;;;-1.50;65.47;99059.13;2626018;54;20545;-69
2022/03/03 06:42:49;;;;;;;22.75;14.13;;;;;;;-1.35;65.71;99051.16;2625935;54;20033;-70
2022/03/03 06:45:20;;;;;;;25.88;15.25;;;;;;;-1.35;64.91;99052.00;2626431;54;20033;-70
2022/03/03 06:47:50;;;;;;;26.42;15.38;;;;;;;-1.29;65.29;99051.56;2618060;54;20038;-69
2022/03/03 06:50:20;;;;;;;22.27;15.45;;;;;;;-1.14;65.37;99047.03;2618862;39;20569;-70
2022/03/03 06:52:53;;;;;;;25.25;15.95;;;;;;;-1.05;64.88;99043.75;2617714;54;20556;-68
2022/03/03 06:55:24;;;;;;;24.50;15.10;;;;;;;-1.05;65.05;99043.75;2618183;54;20034;-69
2022/03/03 06:57:56;;;;;;;20.15;13.73;;;;;;;-1.07;65.09;99043.00;2619762;47;20030;-69
2022/03/03 07:00:29;;;;;;;23.15;14.68;;;;;;;-0.94;65.01;99039.50;2620419;54;20557;-69
2022/03/03 07:02:59;;;;;;;19.40;13.80;;;;;;;-0.92;64.31;99042.84;2618498;47;20037;-69
2022/03/03 07:05:31;;;;;;;22.95;14.68;;;;;;;-0.87;64.64;99045.91;2619481;39;20429;-69
2022/03/03 07:08:03;;;;;;;21.10;14.32;;;;;;;-0.95;64.69;99046.47;2618352;47;20037;-69
2022/03/03 07:10:34;;;;;;;22.25;14.73;;;;;;;-0.90;64.80;99052.16;2620309;54;20568;-69
2022/03/03 07:13:03;;;;;;;24.77;15.60;;;;;;;-0.95;64.63;99071.59;2620542;54;20042;-69
2022/03/03 07:15:42;;;;;;;26.52;16.85;;;;;;;-1.22;64.81;99077.88;2623990;54;20033;-69
2022/03/03 07:18:17;;;;;;;22.50;15.85;;;;;;;-1.07;65.67;99076.75;2626187;54;20033;-70
2022/03/03 07:20:54;;;;;;;25.92;15.57;;;;;;;-0.75;65.72;99066.59;2626386;54;20034;-69
2022/03/03 07:23:36;;;;;;;24.50;15.50;;;;;;;-0.46;65.19;99075.72;2626251;54;20039;-69
2022/03/03 07:26:10;;;;;;;26.95;16.80;;;;;;;-0.33;64.86;99077.28;2623591;54;20037;-68
2022/03/03 07:28:42;;;;;;;29.93;15.67;;;;;;;-0.17;64.65;99073.50;2624497;54;20122;-68
2022/03/03 07:31:13;;;;;;;23.55;17.30;;;;;;;-0.07;64.54;99072.69;2624667;54;20034;-69
2022/03/03 07:33:51;;;;;;;24.70;17.30;;;;;;;-0.02;63.78;99078.34;2622869;47;20065;-69
2022/03/03 07:36:28;;;;;;;27.98;17.33;;;;;;;-0.06;64.11;99076.94;2625039;54;20030;-70
2022/03/03 07:39:03;;;;;;;32.63;17.98;;;;;;;0.02;64.20;99071.16;2626694;54;20817;-69
2022/03/03 07:41:34;;;;;;;25.48;15.77;;;;;;;0.14;64.17;99074.56;2627085;54;20039;-68
2022/03/03 07:44:04;;;;;;;23.08;14.55;;;;;;;0.27;63.68;99072.66;2626263;47;20033;-68
2022/03/03 07:46:33;;;;;;;22.48;15.13;;;;;;;0.23;63.13;99072.06;2625867;54;20049;-68
2022/03/03 07:49:03;;;;;;;25.85;14.43;;;;;;;0.26;63.58;99072.78;2626582;54;20061;-68
2022/03/03 07:51:33;;;;;;;25.85;16.45;;;;;;;0.44;63.55;99068.72;2626295;54;20023;-69
2022/03/03 07:54:06;;;;;;;21.02;14.75;;;;;;;0.60;63.30;99073.53;2625902;46;20041;-70
2022/03/03 07:56:42;;;;;;;24.00;15.90;;;;;;;0.69;63.01;99055.41;2626177;54;20022;-70
2022/03/03 07:59:14;;;;;;;24.40;16.60;;;;;;;0.76;62.63;99055.72;2626505;54;20034;-69
2022/03/03 08:01:46;;;;;;;26.23;16.25;;;;;;;0.86;62.56;99059.25;2625650;54;20037;-69
2022/03/03 08:04:18;;;;;;;28.25;16.35;;;;;;;0.97;62.45;99063.56;2624559;54;20033;-68
2022/03/03 08:06:48;;;;;;;24.67;16.17;;;;;;;1.00;61.83;99065.94;2623811;54;20026;-69
2022/03/03 08:09:24;;;;;;;25.42;17.20;;;;;;;1.11;61.92;99060.69;2625222;54;20034;-69
2022/03/03 08:11:55;;;;;;;25.50;17.10;;;;;;;1.23;61.86;99059.66;2624017;54;20038;-67
2022/03/03 08:14:26;;;;;;;26.83;17.88;;;;;;;1.38;61.75;99054.13;2623421;54;20065;-68
2022/03/03 08:16:56;;;;;;;43.53;29.05;;;;;;;1.51;61.73;99054.78;2622312;54;20030;-69
2022/03/03 08:19:25;;;;;;;26.20;18.13;;;;;;;1.54;60.77;99056.28;2623067;54;20142;-70
2022/03/03 08:21:55;;;;;;;26.00;16.70;;;;;;;1.57;60.84;99058.63;2618845;39;20194;-69
2022/03/03 08:24:28;;;;;;;27.75;17.75;;;;;;;1.54;60.12;99059.69;2619527;54;20042;-69
2022/03/03 08:27:00;;;;;;;28.42;17.77;;;;;;;1.46;59.82;99062.94;2618193;46;20027;-70
2022/03/03 08:29:30;;;;;;;37.10;18.60;;;;;;;1.48;60.30;99074.06;2624626;54;20038;-69
2022/03/03 08:32:00;;;;;;;25.98;16.88;;;;;;;1.58;59.62;99071.50;2625530;54;20046;-71
2022/03/03 08:34:39;;;;;;;25.58;18.05;;;;;;;1.64;59.76;99073.63;2625578;54;20042;-69
2022/03/03 08:37:13;;;;;;;26.70;18.08;;;;;;;1.67;59.37;99075.13;2624954;54;20026;-69
2022/03/03 08:39:47;;;;;;;26.65;17.35;;;;;;;1.72;59.63;99065.97;2622403;54;20061;-68
2022/03/03 08:42:18;;;;;;;;;;;;;;;1.84;59.65;99058.91;2619345;54;20033;-68
2022/03/03 08:44:54;;;;;;;25.83;18.00;;;;;;;2.03;59.79;99063.34;2618348;47;19946;-68
2022/03/03 08:47:25;;;;;;;26.67;17.35;;;;;;;2.21;59.00;99056.56;2618847;54;20041;-69
2022/03/03 08:50:00;;;;;;;29.10;17.70;;;;;;;2.29;58.63;99065.50;2618615;54;20129;-70
2022/03/03 08:52:49;;;;;;;25.02;18.00;;;;;;;2.37;58.87;99061.28;2618648;54;20038;-67
2022/03/03 08:55:21;;;;;;;25.23;17.48;;;;;;;2.55;58.65;99064.03;2617641;47;20530;-67
2022/03/03 08:57:51;;;;;;;30.05;18.25;;;;;;;2.66;58.77;99065.72;2618384;54;20053;-68
2022/03/03 09:00:21;;;;;;;29.33;17.45;;;;;;;2.80;58.09;99062.69;2617331;47;20030;-68
2022/03/03 09:02:52;;;;;;;27.75;18.92;;;;;;;2.90;57.65;99071.38;2619189;31;20516;-67
2022/03/03 09:05:22;;;;;;;27.33;17.98;;;;;;;2.94;57.57;99070.13;2617578;47;20018;-68
2022/03/03 09:07:52;;;;;;;24.67;18.42;;;;;;;3.03;57.35;99073.69;2618034;54;20026;-68
2022/03/03 09:10:24;;;;;;;28.25;18.58;;;;;;;3.14;57.55;99070.09;2618071;54;20027;-67
2022/03/03 09:12:54;;;;;;;27.85;18.27;;;;;;;3.31;57.48;99066.81;2617895;47;20545;-67
2022/03/03 09:15:24;;;;;;;28.10;18.40;;;;;;;3.41;56.45;99064.16;2617868;47;20026;-67
2022/03/03 09:17:53;;;;;;;28.23;19.08;;;;;;;3.42;56.29;99063.19;2618460;54;20526;-67
2022/03/03 09:20:23;;;;;;;25.52;18.98;;;;;;;3.53;56.22;99059.59;2617559;54;20573;-67
2022/03/03 09:22:55;;;;;;;29.27;18.23;;;;;;;3.58;56.29;99052.16;2618218;39;20395;-67
2022/03/03 09:25:28;;;;;;;28.35;20.02;;;;;;;3.68;56.04;99045.94;2618236;54;20038;-68
2022/03/03 09:27:58;;;;;;;32.35;19.48;;;;;;;3.75;55.36;99040.94;2618365;54;20038;-69
2022/03/03 09:30:28;;;;;;;26.98;19.77;;;;;;;3.88;55.29;99041.47;2617701;54;20089;-67
2022/03/03 09:32:58;;;;;;;29.30;20.80;;;;;;;4.00;55.17;99052.56;2618148;54;20039;-68
2022/03/03 09:35:28;;;;;;;29.02;20.15;;;;;;;4.15;54.25;99042.44;2617919;54;20041;-68
2022/03/03 09:37:58;;;;;;;31.30;19.70;;;;;;;4.18;54.71;99047.38;2618169;54;20081;-69
2022/03/03 09:40:30;;;;;;;26.40;18.65;;;;;;;4.33;54.16;99047.72;2618629;39;20426;-68
2022/03/03 09:43:02;;;;;;;27.83;20.17;;;;;;;4.45;53.70;99047.38;2618602;54;20030;-69
2022/03/03 09:45:32;;;;;;;27.30;20.40;;;;;;;4.56;53.45;99041.09;2617753;47;20027;-68
2022/03/03 09:48:05;;;;;;;25.60;20.30;;;;;;;4.62;53.75;99039.69;2617958;54;20037;-69
2022/03/03 09:50:37;;;;;;;37.65;27.58;;;;;;;4.78;51.99;99036.41;2618666;54;20557;-68
2022/03/03 09:53:11;;;;;;;30.83;23.30;;;;;;;4.89;52.28;99041.38;2618306;39;20415;-68
2022/03/03 09:55:45;;;;;;;26.17;18.65;;;;;;;5.02;52.43;99041.00;2617721;54;20038;-68
2022/03/03 09:58:16;;;;;;;31.02;21.15;;;;;;;5.23;51.97;99041.53;2618561;54;20027;-68
2022/03/03 10:00:46;;;;;;;31.15;19.95;;;;;;;5.42;51.18;99043.94;2617976;47;20037;-68
2022/03/03 10:03:18;;;;;;;36.13;20.05;;;;;;;5.57;50.53;99048.63;2618589;54;20034;-68
2022/03/03 10:05:50;;;;;;;34.35;20.88;;;;;;;5.67;50.13;99039.69;2618100;54;20018;-68
2022/03/03 10:08:23;;;;;;;33.20;20.63;;;;;;;5.79;49.92;99037.59;2618340;39;20418;-69
2022/03/03 10:10:59;;;;;;;24.95;19.27;;;;;;;5.90;49.09;99037.31;2618431;54;20065;-69
2022/03/03 10:13:29;;;;;;;28.92;19.10;;;;;;;5.94;49.52;99030.81;2619385;54;20058;-69
2022/03/03 10:16:02;;;;;;;24.40;18.73;;;;;;;6.05;49.31;99032.34;2619898;54;20031;-69
2022/03/03 10:18:32;;;;;;;29.70;19.67;;;;;;;6.20;49.08;99029.94;2619122;47;20029;-69
2022/03/03 10:21:04;;;;;;;31.80;19.73;;;;;;;6.33;47.74;99035.56;2619530;54;20034;-68
2022/03/03 10:23:36;;;;;;;27.65;19.80;;;;;;;6.31;47.67;99034.06;2622341;54;20027;-69
2022/03/03 10:26:10;;;;;;;28.95;19.50;;;;;;;6.34;47.82;99029.34;2623231;54;20541;-68
2022/03/03 10:28:41;;;;;;;29.90;20.33;;;;;;;6.41;47.55;99038.22;2623543;54;20030;-69
2022/03/03 10:31:12;;;;;;;28.92;20.40;;;;;;;6.53;47.18;99028.25;2623754;39;20426;-69
2022/03/03 10:33:46;;;;;;;26.23;18.77;;;;;;;6.70;46.46;99029.09;2622473;54;20023;-69
2022/03/03 10:36:19;;;;;;;29.35;19.88;;;;;;;6.94;46.87;99025.66;2621998;47;20023;-69
2022/03/03 10:38:52;;;;;;;27.40;19.52;;;;;;;6.98;45.79;99016.47;2623207;47;20034;-68
2022/03/03 10:41:36;;;;;;;27.75;19.08;;;;;;;6.97;46.00;99006.09;2623632;54;20056;-70
2022/03/03 10:44:07;;;;;;;;;;;;;;;6.97;46.09;99017.44;2617876;54;20098;-71
2022/03/03 10:46:39;;;;;;;25.27;19.30;;;;;;;7.03;44.88;99011.53;2617823;54;19938;-70
2022/03/03 10:49:21;;;;;;;29.60;19.52;;;;;;;7.07;45.29;99014.66;2617844;54;20033;-70
2022/03/03 10:51:51;;;;;;;31.90;19.45;;;;;;;7.17;44.81;99004.78;2620751;54;20023;-70
2022/03/03 10:54:22;;;;;;;23.25;18.17;;;;;;;7.25;45.00;99001.31;2623225;54;20042;-70
2022/03/03 10:57:11;;;;;;;27.30;19.48;;;;;;;7.30;44.63;98994.56;2622018;54;20106;-70
2022/03/03 10:59:42;;;;;;;26.90;18.77;;;;;;;7.40;44.19;99004.91;2622414;54;20037;-70
2022/03/03 11:02:13;;;;;;;25.58;18.48;;;;;;;7.36;44.90;98988.66;2621917;54;20069;-71
2022/03/03 11:04:44;;;;;;;24.08;18.52;;;;;;;7.47;44.70;98987.50;2622260;54;20166;-70
2022/03/03 11:07:18;;;;;;;24.98;17.88;;;;;;;7.62;44.59;98988.41;2622125;54;20022;-71
2022/03/03 11:09:47;;;;;;;26.30;17.70;;;;;;;7.75;43.36;98987.06;2621656;47;20033;-71
2022/03/03 11:12:20;;;;;;;26.52;17.73;;;;;;;7.79;43.41;98985.72;2622758;47;20565;-71
2022/03/03 11:14:50;;;;;;;26.10;19.20;;;;;;;8.02;42.29;98983.19;2623349;54;20520;-71
2022/03/03 11:17:23;;;;;;;24.50;19.17;;;;;;;8.10;41.40;98988.41;2621246;54;20518;-67
2022/03/03 11:19:58;;;;;;;27.25;18.00;;;;;;;8.12;41.39;98979.34;2621457;47;20026;-65
2022/03/03 11:22:28;;;;;;;24.42;18.08;;;;;;;8.16;41.77;98970.13;2621639;54;20026;-66
2022/03/03 11:25:00;;;;;;;23.17;18.00;;;;;;;8.16;41.92;98956.94;2623138;54;20026;-65
2022/03/03 11:27:44;;;;;;;26.15;19.60;;;;;;;8.29;41.72;98961.66;2622557;54;20042;-65
2022/03/03 11:30:30;;;;;;;27.20;19.00;;;;;;;8.44;40.75;98965.19;2622844;54;20037;-65
2022/03/03 11:33:23;;;;;;;26.00;18.50;;;;;;;8.38;40.72;98958.00;2622717;54;20026;-64
2022/03/03 11:35:59;;;;;;;26.33;18.95;;;;;;;8.37;41.19;98945.81;2622888;54;20053;-65
2022/03/03 11:38:44;;;;;;;24.80;18.55;;;;;;;8.56;40.01;98941.88;2622641;54;20030;-65
2022/03/03 11:41:15;;;;;;;34.80;19.80;;;;;;;8.58;40.08;98936.47;2621731;54;20027;-66